sensor_id;sensor_type;location;lat;lon;timestamp;pressure;altitude;pressure_sealevel;temperature;humidity
45050;BME280;61798;48.048;-1.928;2023-04-02T00:01:45;101071.72;;;8.07;100.00
45050;BME280;61798;48.048;-1.928;2023-04-02T00:08:41;101068.56;;;8.03;100.00
45050;BME280;61798;48.048;-1.928;2023-04-02T00:10:59;101067.88;;;8.10;100.00
45050;BME280;61798;48.048;-1.928;2023-04-02T00:15:15;101087.22;;;8.20;100.00
45050;BME280;61798;48.048;-1.928;2023-04-02T00:17:23;101055.72;;;8.07;100.00
45050;BME280;61798;48.048;-1.928;2023-04-02T00:21:40;101051.84;;;8.01;100.00
45050;BME280;61798;48.048;-1.928;2023-04-02T00:23:49;101052.03;;;7.91;100.00
45050;BME280;61798;48.048;-1.928;2023-04-02T00:25:58;101095.78;;;8.16;100.00
45050;BME280;61798;48.048;-1.928;2023-04-02T00:28:08;101092.25;;;8.15;100.00
45050;BME280;61798;48.048;-1.928;2023-04-02T00:30:15;101071.38;;;8.02;100.00
45050;BME280;61798;48.048;-1.928;2023-04-02T00:32:29;101065.88;;;7.95;100.00
45050;BME280;61798;48.048;-1.928;2023-04-02T00:34:36;101070.03;;;7.98;100.00
45050;BME280;61798;48.048;-1.928;2023-04-02T00:36:43;101068.88;;;8.00;100.00
45050;BME280;61798;48.048;-1.928;2023-04-02T00:38:49;101066.53;;;7.97;100.00
45050;BME280;61798;48.048;-1.928;2023-04-02T00:40:58;101084.06;;;8.08;100.00
45050;BME280;61798;48.048;-1.928;2023-04-02T00:43:06;101104.78;;;8.14;100.00
45050;BME280;61798;48.048;-1.928;2023-04-02T00:45:24;101063.22;;;7.95;100.00
45050;BME280;61798;48.048;-1.928;2023-04-02T00:47:40;101104.41;;;8.09;100.00
45050;BME280;61798;48.048;-1.928;2023-04-02T00:49:53;101095.78;;;8.16;100.00
45050;BME280;61798;48.048;-1.928;2023-04-02T00:52:05;101109.78;;;8.18;100.00
45050;BME280;61798;48.048;-1.928;2023-04-02T00:54:12;101098.75;;;8.04;100.00
45050;BME280;61798;48.048;-1.928;2023-04-02T00:56:32;101095.88;;;7.97;100.00
45050;BME280;61798;48.048;-1.928;2023-04-02T00:58:39;101085.91;;;7.99;100.00
45050;BME280;61798;48.048;-1.928;2023-04-02T01:00:49;101114.78;;;8.04;100.00
45050;BME280;61798;48.048;-1.928;2023-04-02T01:05:33;101108.06;;;8.08;100.00
45050;BME280;61798;48.048;-1.928;2023-04-02T01:10:16;101126.78;;;8.25;100.00
45050;BME280;61798;48.048;-1.928;2023-04-02T01:15:29;101074.88;;;7.94;100.00
45050;BME280;61798;48.048;-1.928;2023-04-02T01:18:24;101143.31;;;8.29;100.00
45050;BME280;61798;48.048;-1.928;2023-04-02T01:20:58;101133.66;;;8.36;100.00
45050;BME280;61798;48.048;-1.928;2023-04-02T01:23:13;101149.50;;;8.38;100.00
45050;BME280;61798;48.048;-1.928;2023-04-02T01:25:42;101122.13;;;8.27;100.00
45050;BME280;61798;48.048;-1.928;2023-04-02T01:27:58;101133.81;;;8.34;100.00
45050;BME280;61798;48.048;-1.928;2023-04-02T01:30:11;101117.94;;;8.24;100.00
45050;BME280;61798;48.048;-1.928;2023-04-02T01:32:19;101146.50;;;8.32;100.00
45050;BME280;61798;48.048;-1.928;2023-04-02T01:34:27;101124.31;;;8.23;100.00
45050;BME280;61798;48.048;-1.928;2023-04-02T01:41:39;101150.34;;;8.38;100.00
45050;BME280;61798;48.048;-1.928;2023-04-02T01:43:54;101147.53;;;8.40;100.00
45050;BME280;61798;48.048;-1.928;2023-04-02T01:46:32;101135.81;;;8.41;100.00
45050;BME280;61798;48.048;-1.928;2023-04-02T01:48:38;101126.13;;;8.23;100.00
45050;BME280;61798;48.048;-1.928;2023-04-02T01:50:47;101131.81;;;8.28;100.00
45050;BME280;61798;48.048;-1.928;2023-04-02T01:52:56;101145.50;;;8.33;100.00
45050;BME280;61798;48.048;-1.928;2023-04-02T01:55:03;101109.94;;;8.08;100.00
45050;BME280;61798;48.048;-1.928;2023-04-02T01:57:11;101105.09;;;8.11;100.00
45050;BME280;61798;48.048;-1.928;2023-04-02T01:59:19;101115.44;;;8.14;100.00
45050;BME280;61798;48.048;-1.928;2023-04-02T02:01:34;101118.13;;;8.23;100.00
45050;BME280;61798;48.048;-1.928;2023-04-02T02:03:43;101134.50;;;8.20;100.00
45050;BME280;61798;48.048;-1.928;2023-04-02T02:05:50;101101.72;;;8.01;100.00
45050;BME280;61798;48.048;-1.928;2023-04-02T02:07:57;101149.50;;;8.29;100.00
45050;BME280;61798;48.048;-1.928;2023-04-02T02:10:09;101141.16;;;8.24;100.00
45050;BME280;61798;48.048;-1.928;2023-04-02T02:12:19;101130.78;;;8.21;100.00
45050;BME280;61798;48.048;-1.928;2023-04-02T02:14:27;101126.97;;;8.15;100.00
45050;BME280;61798;48.048;-1.928;2023-04-02T02:16:34;101132.13;;;8.25;100.00
45050;BME280;61798;48.048;-1.928;2023-04-02T02:18:49;101147.50;;;8.31;100.00
45050;BME280;61798;48.048;-1.928;2023-04-02T02:20:58;101127.81;;;8.24;100.00
45050;BME280;61798;48.048;-1.928;2023-04-02T02:23:06;101124.78;;;8.19;100.00
45050;BME280;61798;48.048;-1.928;2023-04-02T02:25:23;101131.97;;;8.18;100.00
45050;BME280;61798;48.048;-1.928;2023-04-02T02:27:44;101144.84;;;8.23;100.00
45050;BME280;61798;48.048;-1.928;2023-04-02T02:29:59;101148.34;;;8.32;100.00
45050;BME280;61798;48.048;-1.928;2023-04-02T02:32:08;101158.84;;;8.33;100.00
45050;BME280;61798;48.048;-1.928;2023-04-02T02:34:20;101151.50;;;8.27;100.00
45050;BME280;61798;48.048;-1.928;2023-04-02T02:38:37;101163.03;;;8.28;100.00
45050;BME280;61798;48.048;-1.928;2023-04-02T02:40:46;101175.72;;;8.34;100.00
45050;BME280;61798;48.048;-1.928;2023-04-02T02:42:58;101171.56;;;8.31;100.00
45050;BME280;61798;48.048;-1.928;2023-04-02T02:45:12;101157.81;;;8.18;100.00
45050;BME280;61798;48.048;-1.928;2023-04-02T02:47:26;101165.34;;;8.14;100.00
45050;BME280;61798;48.048;-1.928;2023-04-02T02:49:35;101166.19;;;8.23;100.00
45050;BME280;61798;48.048;-1.928;2023-04-02T02:51:56;101162.19;;;8.19;100.00
45050;BME280;61798;48.048;-1.928;2023-04-02T02:54:04;101174.84;;;8.25;100.00
45050;BME280;61798;48.048;-1.928;2023-04-02T02:56:11;101191.22;;;8.30;100.00
45050;BME280;61798;48.048;-1.928;2023-04-02T02:58:20;101183.06;;;8.32;100.00
45050;BME280;61798;48.048;-1.928;2023-04-02T03:00:29;101198.28;;;8.40;100.00
45050;BME280;61798;48.048;-1.928;2023-04-02T03:02:36;101203.59;;;8.31;100.00
45050;BME280;61798;48.048;-1.928;2023-04-02T03:04:49;101184.38;;;8.19;100.00
45050;BME280;61798;48.048;-1.928;2023-04-02T03:06:57;101158.63;;;8.01;100.00
45050;BME280;61798;48.048;-1.928;2023-04-02T03:09:15;101209.41;;;8.27;100.00
45050;BME280;61798;48.048;-1.928;2023-04-02T03:11:44;101213.59;;;8.29;100.00
45050;BME280;61798;48.048;-1.928;2023-04-02T03:14:00;101193.72;;;8.15;100.00
45050;BME280;61798;48.048;-1.928;2023-04-02T03:16:15;101195.38;;;8.08;100.00
45050;BME280;61798;48.048;-1.928;2023-04-02T03:21:01;101186.66;;;8.06;100.00
45050;BME280;61798;48.048;-1.928;2023-04-02T03:23:22;101211.22;;;8.18;100.00
45050;BME280;61798;48.048;-1.928;2023-04-02T03:25:42;101202.22;;;8.19;100.00
45050;BME280;61798;48.048;-1.928;2023-04-02T03:27:52;101227.25;;;8.18;100.00
45050;BME280;61798;48.048;-1.928;2023-04-02T03:32:31;101235.94;;;8.28;100.00
45050;BME280;61798;48.048;-1.928;2023-04-02T03:34:48;101238.91;;;8.17;100.00
45050;BME280;61798;48.048;-1.928;2023-04-02T03:39:43;101221.53;;;8.12;100.00
45050;BME280;61798;48.048;-1.928;2023-04-02T03:42:21;101233.59;;;8.25;100.00
45050;BME280;61798;48.048;-1.928;2023-04-02T03:44:50;101239.28;;;8.22;100.00
45050;BME280;61798;48.048;-1.928;2023-04-02T03:47:32;101247.72;;;8.09;100.00
45050;BME280;61798;48.048;-1.928;2023-04-02T03:49:46;101212.16;;;7.91;100.00
45050;BME280;61798;48.048;-1.928;2023-04-02T03:52:00;101251.94;;;8.11;100.00
45050;BME280;61798;48.048;-1.928;2023-04-02T03:54:12;101252.44;;;8.15;100.00
45050;BME280;61798;48.048;-1.928;2023-04-02T03:56:28;101247.59;;;8.10;100.00
45050;BME280;61798;48.048;-1.928;2023-04-02T03:58:43;101251.13;;;8.19;100.00
45050;BME280;61798;48.048;-1.928;2023-04-02T04:00:56;101251.41;;;8.08;100.00
45050;BME280;61798;48.048;-1.928;2023-04-02T04:03:09;101250.94;;;8.21;100.00
45050;BME280;61798;48.048;-1.928;2023-04-02T04:05:33;101249.56;;;8.08;100.00
45050;BME280;61798;48.048;-1.928;2023-04-02T04:07:40;101246.75;;;8.10;100.00
45050;BME280;61798;48.048;-1.928;2023-04-02T04:09:50;101240.88;;;8.06;100.00
45050;BME280;61798;48.048;-1.928;2023-04-02T04:12:25;101232.84;;;7.98;100.00
45050;BME280;61798;48.048;-1.928;2023-04-02T04:14:36;101232.53;;;8.01;100.00
45050;BME280;61798;48.048;-1.928;2023-04-02T04:17:10;101199.41;;;7.77;100.00
45050;BME280;61798;48.048;-1.928;2023-04-02T04:19:42;101237.84;;;8.01;100.00
45050;BME280;61798;48.048;-1.928;2023-04-02T04:21:51;101242.34;;;8.00;100.00
45050;BME280;61798;48.048;-1.928;2023-04-02T04:24:04;101256.25;;;8.12;100.00
45050;BME280;61798;48.048;-1.928;2023-04-02T04:26:20;101255.56;;;8.02;100.00
45050;BME280;61798;48.048;-1.928;2023-04-02T04:28:43;101266.59;;;8.07;100.00
45050;BME280;61798;48.048;-1.928;2023-04-02T04:31:18;101247.00;;;7.90;100.00
45050;BME280;61798;48.048;-1.928;2023-04-02T04:33:30;101252.53;;;7.97;100.00
45050;BME280;61798;48.048;-1.928;2023-04-02T04:35:45;101271.19;;;7.97;100.00
45050;BME280;61798;48.048;-1.928;2023-04-02T04:38:00;101262.16;;;7.89;100.00
45050;BME280;61798;48.048;-1.928;2023-04-02T04:40:17;101280.94;;;8.06;100.00
45050;BME280;61798;48.048;-1.928;2023-04-02T04:42:29;101271.56;;;8.02;100.00
45050;BME280;61798;48.048;-1.928;2023-04-02T04:44:43;101242.25;;;7.75;100.00
45050;BME280;61798;48.048;-1.928;2023-04-02T04:46:56;101289.25;;;8.03;100.00
45050;BME280;61798;48.048;-1.928;2023-04-02T04:51:24;101299.94;;;8.03;100.00
45050;BME280;61798;48.048;-1.928;2023-04-02T04:53:32;101280.84;;;7.89;100.00
45050;BME280;61798;48.048;-1.928;2023-04-02T04:55:41;101301.06;;;8.00;100.00
45050;BME280;61798;48.048;-1.928;2023-04-02T04:57:48;101305.59;;;8.00;100.00
45050;BME280;61798;48.048;-1.928;2023-04-02T05:00:24;101303.59;;;8.02;100.00
45050;BME280;61798;48.048;-1.928;2023-04-02T05:02:43;101244.47;;;7.53;100.00
45050;BME280;61798;48.048;-1.928;2023-04-02T05:04:51;101305.72;;;7.90;100.00
45050;BME280;61798;48.048;-1.928;2023-04-02T05:07:06;101305.34;;;7.85;100.00
45050;BME280;61798;48.048;-1.928;2023-04-02T05:09:26;101294.31;;;7.79;100.00
45050;BME280;61798;48.048;-1.928;2023-04-02T05:11:42;101309.16;;;7.82;100.00
45050;BME280;61798;48.048;-1.928;2023-04-02T05:13:57;101320.88;;;7.89;100.00
45050;BME280;61798;48.048;-1.928;2023-04-02T05:16:15;101294.94;;;7.73;100.00
45050;BME280;61798;48.048;-1.928;2023-04-02T05:18:33;101325.03;;;7.83;100.00
45050;BME280;61798;48.048;-1.928;2023-04-02T05:20:56;101325.75;;;7.94;100.00
45050;BME280;61798;48.048;-1.928;2023-04-02T05:25:30;101329.25;;;7.95;100.00
45050;BME280;61798;48.048;-1.928;2023-04-02T05:27:46;101331.22;;;7.92;100.00
45050;BME280;61798;48.048;-1.928;2023-04-02T05:32:31;101337.53;;;7.83;100.00
45050;BME280;61798;48.048;-1.928;2023-04-02T05:34:40;101313.78;;;7.71;100.00
45050;BME280;61798;48.048;-1.928;2023-04-02T05:36:51;101332.00;;;7.76;100.00
45050;BME280;61798;48.048;-1.928;2023-04-02T05:38:58;101333.50;;;7.79;100.00
45050;BME280;61798;48.048;-1.928;2023-04-02T05:41:28;101356.03;;;7.85;100.00
45050;BME280;61798;48.048;-1.928;2023-04-02T05:43:38;101360.72;;;7.82;100.00
45050;BME280;61798;48.048;-1.928;2023-04-02T05:45:54;101362.16;;;7.77;100.00
45050;BME280;61798;48.048;-1.928;2023-04-02T05:48:16;101356.16;;;7.75;100.00
45050;BME280;61798;48.048;-1.928;2023-04-02T05:50:27;101381.34;;;7.80;100.00
45050;BME280;61798;48.048;-1.928;2023-04-02T05:52:40;101352.50;;;7.76;100.00
45050;BME280;61798;48.048;-1.928;2023-04-02T05:57:01;101376.41;;;7.86;100.00
45050;BME280;61798;48.048;-1.928;2023-04-02T05:59:16;101387.28;;;7.92;100.00
45050;BME280;61798;48.048;-1.928;2023-04-02T06:01:35;101379.91;;;7.86;100.00
45050;BME280;61798;48.048;-1.928;2023-04-02T06:04:24;101363.84;;;7.78;100.00
45050;BME280;61798;48.048;-1.928;2023-04-02T06:06:42;101396.59;;;7.88;100.00
45050;BME280;61798;48.048;-1.928;2023-04-02T06:08:57;101370.66;;;7.72;100.00
45050;BME280;61798;48.048;-1.928;2023-04-02T06:11:15;101379.72;;;7.79;100.00
45050;BME280;61798;48.048;-1.928;2023-04-02T06:13:23;101388.28;;;7.91;100.00
45050;BME280;61798;48.048;-1.928;2023-04-02T06:15:30;101392.66;;;8.01;100.00
45050;BME280;61798;48.048;-1.928;2023-04-02T06:19:57;101406.34;;;7.98;100.00
45050;BME280;61798;48.048;-1.928;2023-04-02T06:22:33;101382.50;;;7.78;100.00
45050;BME280;61798;48.048;-1.928;2023-04-02T06:24:40;101420.66;;;7.97;100.00
45050;BME280;61798;48.048;-1.928;2023-04-02T06:26:56;101401.56;;;7.83;100.00
45050;BME280;61798;48.048;-1.928;2023-04-02T06:31:33;101432.44;;;8.04;100.00
45050;BME280;61798;48.048;-1.928;2023-04-02T06:33:42;101425.03;;;7.98;100.00
45050;BME280;61798;48.048;-1.928;2023-04-02T06:35:49;101395.19;;;7.76;100.00
45050;BME280;61798;48.048;-1.928;2023-04-02T06:37:59;101427.09;;;8.04;100.00
45050;BME280;61798;48.048;-1.928;2023-04-02T06:40:31;101421.19;;;8.00;100.00
45050;BME280;61798;48.048;-1.928;2023-04-02T06:42:39;101411.25;;;7.84;100.00
45050;BME280;61798;48.048;-1.928;2023-04-02T06:44:47;101421.16;;;7.92;100.00
45050;BME280;61798;48.048;-1.928;2023-04-02T06:47:03;101421.50;;;7.97;100.00
45050;BME280;61798;48.048;-1.928;2023-04-02T06:49:33;101443.78;;;8.06;100.00
45050;BME280;61798;48.048;-1.928;2023-04-02T06:51:42;101419.78;;;7.88;100.00
45050;BME280;61798;48.048;-1.928;2023-04-02T06:53:49;101432.72;;;8.01;100.00
45050;BME280;61798;48.048;-1.928;2023-04-02T06:56:35;101437.91;;;8.02;100.00
45050;BME280;61798;48.048;-1.928;2023-04-02T06:58:43;101442.59;;;8.09;100.00
45050;BME280;61798;48.048;-1.928;2023-04-02T07:00:49;101432.44;;;8.04;100.00
45050;BME280;61798;48.048;-1.928;2023-04-02T07:02:57;101412.84;;;7.95;100.00
45050;BME280;61798;48.048;-1.928;2023-04-02T07:05:07;101457.75;;;8.27;100.00
45050;BME280;61798;48.048;-1.928;2023-04-02T07:07:13;101440.13;;;8.07;100.00
45050;BME280;61798;48.048;-1.928;2023-04-02T07:09:20;101451.38;;;8.19;100.00
45050;BME280;61798;48.048;-1.928;2023-04-02T07:11:26;101438.56;;;8.04;100.00
45050;BME280;61798;48.048;-1.928;2023-04-02T07:13:32;101411.00;;;7.96;100.00
45050;BME280;61798;48.048;-1.928;2023-04-02T07:15:38;101436.69;;;7.97;100.00
45050;BME280;61798;48.048;-1.928;2023-04-02T07:17:45;101455.66;;;8.12;100.00
45050;BME280;61798;48.048;-1.928;2023-04-02T07:19:51;101434.53;;;8.00;100.00
45050;BME280;61798;48.048;-1.928;2023-04-02T07:21:57;101447.41;;;8.05;100.00
45050;BME280;61798;48.048;-1.928;2023-04-02T07:24:03;101464.50;;;8.12;100.00
45050;BME280;61798;48.048;-1.928;2023-04-02T07:26:16;101479.91;;;8.19;100.00
45050;BME280;61798;48.048;-1.928;2023-04-02T07:28:22;101453.41;;;7.99;100.00
45050;BME280;61798;48.048;-1.928;2023-04-02T07:30:29;101498.34;;;8.30;100.00
45050;BME280;61798;48.048;-1.928;2023-04-02T07:32:35;101448.06;;;7.99;100.00
45050;BME280;61798;48.048;-1.928;2023-04-02T07:34:42;101466.81;;;8.07;100.00
45050;BME280;61798;48.048;-1.928;2023-04-02T07:36:49;101453.78;;;8.04;100.00
45050;BME280;61798;48.048;-1.928;2023-04-02T07:38:59;101503.81;;;8.29;100.00
45050;BME280;61798;48.048;-1.928;2023-04-02T07:41:07;101500.63;;;8.25;100.00
45050;BME280;61798;48.048;-1.928;2023-04-02T07:43:25;101486.94;;;8.20;100.00
45050;BME280;61798;48.048;-1.928;2023-04-02T07:45:35;101502.31;;;8.26;100.00
45050;BME280;61798;48.048;-1.928;2023-04-02T07:47:45;101469.31;;;8.09;100.00
45050;BME280;61798;48.048;-1.928;2023-04-02T07:49:52;101509.47;;;8.25;100.00
45050;BME280;61798;48.048;-1.928;2023-04-02T07:52:03;101481.53;;;8.11;100.00
45050;BME280;61798;48.048;-1.928;2023-04-02T07:54:14;101494.94;;;8.20;100.00
45050;BME280;61798;48.048;-1.928;2023-04-02T07:56:24;101503.63;;;8.22;100.00
45050;BME280;61798;48.048;-1.928;2023-04-02T07:58:35;101510.31;;;8.26;100.00
45050;BME280;61798;48.048;-1.928;2023-04-02T08:00:42;101507.81;;;8.24;100.00
45050;BME280;61798;48.048;-1.928;2023-04-02T08:02:52;101510.31;;;8.26;100.00
45050;BME280;61798;48.048;-1.928;2023-04-02T08:05:03;101505.31;;;8.23;100.00
45050;BME280;61798;48.048;-1.928;2023-04-02T08:07:11;101488.59;;;8.21;100.00
45050;BME280;61798;48.048;-1.928;2023-04-02T08:09:21;101519.91;;;8.37;100.00
45050;BME280;61798;48.048;-1.928;2023-04-02T08:11:34;101502.38;;;8.34;100.00
45050;BME280;61798;48.048;-1.928;2023-04-02T08:13:41;101519.81;;;8.47;100.00
45050;BME280;61798;48.048;-1.928;2023-04-02T08:15:49;101517.22;;;8.55;100.00
45050;BME280;61798;48.048;-1.928;2023-04-02T08:18:00;101502.78;;;8.48;100.00
45050;BME280;61798;48.048;-1.928;2023-04-02T08:20:21;101524.16;;;8.66;100.00
45050;BME280;61798;48.048;-1.928;2023-04-02T08:22:35;101512.63;;;8.66;100.00
45050;BME280;61798;48.048;-1.928;2023-04-02T08:24:45;101502.25;;;8.63;100.00
45050;BME280;61798;48.048;-1.928;2023-04-02T08:26:52;101506.31;;;8.75;100.00
45050;BME280;61798;48.048;-1.928;2023-04-02T08:29:02;101485.53;;;8.61;100.00
45050;BME280;61798;48.048;-1.928;2023-04-02T08:31:13;101508.09;;;8.66;100.00
45050;BME280;61798;48.048;-1.928;2023-04-02T08:33:22;101488.81;;;8.54;100.00
45050;BME280;61798;48.048;-1.928;2023-04-02T08:35:47;101524.34;;;8.73;100.00
45050;BME280;61798;48.048;-1.928;2023-04-02T08:37:55;101497.28;;;8.50;100.00
45050;BME280;61798;48.048;-1.928;2023-04-02T08:40:33;101538.69;;;8.72;100.00
45050;BME280;61798;48.048;-1.928;2023-04-02T08:46:00;101541.06;;;8.75;100.00
45050;BME280;61798;48.048;-1.928;2023-04-02T08:48:10;101538.75;;;8.81;100.00
45050;BME280;61798;48.048;-1.928;2023-04-02T08:50:34;101540.63;;;8.88;100.00
45050;BME280;61798;48.048;-1.928;2023-04-02T08:52:48;101523.41;;;8.83;100.00
45050;BME280;61798;48.048;-1.928;2023-04-02T08:55:18;101541.34;;;8.99;100.00
45050;BME280;61798;48.048;-1.928;2023-04-02T08:57:41;101542.53;;;9.05;100.00
45050;BME280;61798;48.048;-1.928;2023-04-02T09:00:00;101535.53;;;9.12;100.00
45050;BME280;61798;48.048;-1.928;2023-04-02T09:02:42;101542.09;;;9.18;100.00
45050;BME280;61798;48.048;-1.928;2023-04-02T09:04:52;101552.00;;;9.26;100.00
45050;BME280;61798;48.048;-1.928;2023-04-02T09:07:02;101526.56;;;9.22;100.00
45050;BME280;61798;48.048;-1.928;2023-04-02T09:09:22;101545.84;;;9.34;100.00
45050;BME280;61798;48.048;-1.928;2023-04-02T09:11:34;101550.00;;;9.36;100.00
45050;BME280;61798;48.048;-1.928;2023-04-02T09:13:44;101528.94;;;9.33;100.00
45050;BME280;61798;48.048;-1.928;2023-04-02T09:16:25;101532.00;;;9.47;100.00
45050;BME280;61798;48.048;-1.928;2023-04-02T09:18:29;101541.88;;;9.46;100.00
45050;BME280;61798;48.048;-1.928;2023-04-02T09:20:37;101503.75;;;9.01;100.00
45050;BME280;61798;48.048;-1.928;2023-04-02T09:22:44;101524.06;;;9.28;100.00
45050;BME280;61798;48.048;-1.928;2023-04-02T09:24:56;101512.84;;;9.25;100.00
45050;BME280;61798;48.048;-1.928;2023-04-02T09:27:03;101542.72;;;9.55;100.00
45050;BME280;61798;48.048;-1.928;2023-04-02T09:31:36;101570.03;;;9.67;100.00
45050;BME280;61798;48.048;-1.928;2023-04-02T09:33:46;101567.34;;;9.67;100.00
45050;BME280;61798;48.048;-1.928;2023-04-02T09:35:55;101569.50;;;9.72;100.00
45050;BME280;61798;48.048;-1.928;2023-04-02T09:40:31;101550.25;;;9.60;100.00
45050;BME280;61798;48.048;-1.928;2023-04-02T09:42:37;101558.59;;;9.57;100.00
45050;BME280;61798;48.048;-1.928;2023-04-02T09:44:43;101507.22;;;9.45;100.00
45050;BME280;61798;48.048;-1.928;2023-04-02T09:46:55;101556.09;;;9.63;100.00
45050;BME280;61798;48.048;-1.928;2023-04-02T09:49:04;101569.00;;;9.68;100.00
45050;BME280;61798;48.048;-1.928;2023-04-02T09:51:19;101558.97;;;9.62;100.00
45050;BME280;61798;48.048;-1.928;2023-04-02T09:53:32;101563.81;;;9.58;100.00
45050;BME280;61798;48.048;-1.928;2023-04-02T09:55:39;101557.19;;;9.36;100.00
45050;BME280;61798;48.048;-1.928;2023-04-02T09:57:46;101573.63;;;9.49;100.00
45050;BME280;61798;48.048;-1.928;2023-04-02T10:02:30;101580.72;;;9.76;100.00
45050;BME280;61798;48.048;-1.928;2023-04-02T10:06:49;101569.00;;;9.68;100.00
45050;BME280;61798;48.048;-1.928;2023-04-02T10:09:27;101570.22;;;9.82;100.00
45050;BME280;61798;48.048;-1.928;2023-04-02T10:11:34;101553.44;;;9.72;100.00
45050;BME280;61798;48.048;-1.928;2023-04-02T10:13:59;101587.41;;;9.80;100.00
45050;BME280;61798;48.048;-1.928;2023-04-02T10:16:16;101592.97;;;9.87;100.00
45050;BME280;61798;48.048;-1.928;2023-04-02T10:20:49;101592.06;;;9.61;100.00
45050;BME280;61798;48.048;-1.928;2023-04-02T10:22:57;101586.66;;;9.44;100.00
45050;BME280;61798;48.048;-1.928;2023-04-02T10:25:12;101603.22;;;9.48;100.00
45050;BME280;61798;48.048;-1.928;2023-04-02T10:27:27;101607.72;;;9.39;100.00
45050;BME280;61798;48.048;-1.928;2023-04-02T10:32:13;101594.50;;;9.37;100.00
45050;BME280;61798;48.048;-1.928;2023-04-02T10:35:03;101614.63;;;9.50;100.00
45050;BME280;61798;48.048;-1.928;2023-04-02T10:37:42;101601.19;;;9.41;100.00
45050;BME280;61798;48.048;-1.928;2023-04-02T10:39:57;101609.94;;;9.52;100.00
45050;BME280;61798;48.048;-1.928;2023-04-02T10:42:29;101621.94;;;9.48;100.00
45050;BME280;61798;48.048;-1.928;2023-04-02T10:47:47;101618.94;;;9.43;100.00
45050;BME280;61798;48.048;-1.928;2023-04-02T10:50:07;101605.91;;;9.48;100.00
45050;BME280;61798;48.048;-1.928;2023-04-02T10:52:28;101634.91;;;9.69;100.00
45050;BME280;61798;48.048;-1.928;2023-04-02T10:54:48;101629.09;;;9.82;100.00
45050;BME280;61798;48.048;-1.928;2023-04-02T10:56:59;101613.66;;;9.59;100.00
45050;BME280;61798;48.048;-1.928;2023-04-02T10:59:21;101646.94;;;9.65;100.00
45050;BME280;61798;48.048;-1.928;2023-04-02T11:01:29;101628.63;;;9.44;100.00
45050;BME280;61798;48.048;-1.928;2023-04-02T11:03:47;101628.59;;;9.35;100.00
45050;BME280;61798;48.048;-1.928;2023-04-02T11:05:57;101651.16;;;9.33;100.00
45050;BME280;61798;48.048;-1.928;2023-04-02T11:10:16;101642.78;;;9.27;100.00
45050;BME280;61798;48.048;-1.928;2023-04-02T11:12:41;101658.38;;;9.40;100.00
45050;BME280;61798;48.048;-1.928;2023-04-02T11:14:50;101658.56;;;9.39;100.00
45050;BME280;61798;48.048;-1.928;2023-04-02T11:17:00;101611.97;;;9.15;100.00
45050;BME280;61798;48.048;-1.928;2023-04-02T11:26:41;101669.22;;;9.74;100.00
45050;BME280;61798;48.048;-1.928;2023-04-02T11:29:29;101668.25;;;9.75;100.00
45050;BME280;61798;48.048;-1.928;2023-04-02T11:31:36;101676.44;;;9.82;100.00
45050;BME280;61798;48.048;-1.928;2023-04-02T11:33:42;101672.44;;;9.86;100.00
45050;BME280;61798;48.048;-1.928;2023-04-02T11:35:50;101657.00;;;9.71;100.00
45050;BME280;61798;48.048;-1.928;2023-04-02T11:40:47;101681.28;;;9.78;100.00
45050;BME280;61798;48.048;-1.928;2023-04-02T11:45:53;101669.88;;;9.68;100.00
45050;BME280;61798;48.048;-1.928;2023-04-02T11:55:25;101680.81;;;9.83;100.00
45050;BME280;61798;48.048;-1.928;2023-04-02T11:57:50;101675.75;;;9.80;100.00
45050;BME280;61798;48.048;-1.928;2023-04-02T12:06:04;101645.44;;;9.62;100.00
45050;BME280;61798;48.048;-1.928;2023-04-02T12:11:04;101649.50;;;9.83;100.00
45050;BME280;61798;48.048;-1.928;2023-04-02T12:15:51;101677.19;;;10.09;100.00
45050;BME280;61798;48.048;-1.928;2023-04-02T12:18:24;101682.03;;;10.05;100.00
45050;BME280;61798;48.048;-1.928;2023-04-02T12:20:32;101663.41;;;9.96;100.00
45050;BME280;61798;48.048;-1.928;2023-04-02T12:22:47;101681.72;;;10.17;100.00
45050;BME280;61798;48.048;-1.928;2023-04-02T12:24:58;101676.53;;;10.15;100.00
45050;BME280;61798;48.048;-1.928;2023-04-02T12:27:20;101690.63;;;10.51;100.00
45050;BME280;61798;48.048;-1.928;2023-04-02T12:29:32;101670.03;;;10.43;100.00
45050;BME280;61798;48.048;-1.928;2023-04-02T12:31:44;101689.34;;;10.72;100.00
45050;BME280;61798;48.048;-1.928;2023-04-02T12:33:51;101667.41;;;10.68;100.00
45050;BME280;61798;48.048;-1.928;2023-04-02T12:38:27;101695.84;;;11.12;100.00
45050;BME280;61798;48.048;-1.928;2023-04-02T12:40:34;101685.94;;;11.20;100.00
45050;BME280;61798;48.048;-1.928;2023-04-02T12:42:40;101686.31;;;11.09;100.00
45050;BME280;61798;48.048;-1.928;2023-04-02T12:44:49;101674.75;;;10.83;100.00
45050;BME280;61798;48.048;-1.928;2023-04-02T12:46:57;101693.88;;;10.88;100.00
45050;BME280;61798;48.048;-1.928;2023-04-02T12:51:11;101675.78;;;10.82;100.00
45050;BME280;61798;48.048;-1.928;2023-04-02T12:53:24;101695.22;;;10.93;100.00
45050;BME280;61798;48.048;-1.928;2023-04-02T12:55:31;101678.47;;;10.82;100.00
45050;BME280;61798;48.048;-1.928;2023-04-02T12:57:41;101689.50;;;10.87;100.00
45050;BME280;61798;48.048;-1.928;2023-04-02T12:59:55;101674.94;;;10.82;100.00
45050;BME280;61798;48.048;-1.928;2023-04-02T13:02:16;101692.53;;;10.93;100.00
45050;BME280;61798;48.048;-1.928;2023-04-02T13:04:22;101669.25;;;10.68;100.00
45050;BME280;61798;48.048;-1.928;2023-04-02T13:06:28;101680.81;;;10.94;100.00
45050;BME280;61798;48.048;-1.928;2023-04-02T13:08:41;101673.75;;;10.59;100.00
45050;BME280;61798;48.048;-1.928;2023-04-02T13:10:58;101695.88;;;10.61;100.00
45050;BME280;61798;48.048;-1.928;2023-04-02T13:13:05;101673.09;;;10.82;100.00
45050;BME280;61798;48.048;-1.928;2023-04-02T13:15:32;101683.81;;;10.91;100.00